Big Bear Station Historical Data
Daily Summary for July 22, 2017 Units:  English    Metric   Both
« Previous Day
Next Day »
Daily Weekly Monthly Yearly Custom
  High: Low: Average:
Temperature: 86.7 °F 54.0 °F 74.4 °F
Dew Point: 53.0 °F 44.4 °F 49.6 °F
Humidity: 78 % 30 % 44 %
Wind Speed: 9.4 mph 0.0 mph 2.7 mph
Wind Gust: -999.0 mph - -
Wind:- - WNW
Pressure: 23.62 in 23.57 in -
Precipitation: 0.00 in    
Historical Graphs
 
 
Tabular Data for July 22, 2017
Time Temperature Dew Point Pressure Wind Wind Speed Wind Gust Humidity Rainfall Rate (Hourly)
06:55 54.0 °F 47.3 °F 23.60 in Calm   -999.0 mph 78 % 0 in
07:10 54.7 °F 48.0 °F 23.60 in Calm   -999.0 mph 78 % 0 in
07:25 55.2 °F 48.1 °F 23.61 in Calm   -999.0 mph 77 % 0 in
07:40 56.8 °F 49.0 °F 23.61 in Calm   -999.0 mph 75 % 0 in
07:55 57.7 °F 49.8 °F 23.61 in Calm   -999.0 mph 75 % 0 in
08:11 59.2 °F 49.8 °F 23.61 in Calm   -999.0 mph 71 % 0 in
08:26 61.0 °F 47.0 °F 23.61 in Calm   -999.0 mph 60 % 0 in
08:42 65.7 °F 44.4 °F 23.61 in SSE 1.1 mph -999.0 mph 46 % 0 in
08:57 68.4 °F 47.4 °F 23.62 in NW 3.2 mph -999.0 mph 47 % 0 in
09:12 70.5 °F 49.3 °F 23.62 in West 2.7 mph -999.0 mph 47 % 0 in
09:27 71.8 °F 48.7 °F 23.62 in NW 7.3 mph -999.0 mph 44 % 0 in
09:43 73.0 °F 48.6 °F 23.62 in West 2.2 mph -999.0 mph 42 % 0 in
09:58 73.8 °F 50.5 °F 23.61 in SSE 1.7 mph -999.0 mph 44 % 0 in
10:14 74.5 °F 51.2 °F 23.61 in North 4.2 mph -999.0 mph 44 % 0 in
10:29 75.0 °F 51.0 °F 23.62 in NW 4.2 mph -999.0 mph 43 % 0 in
10:44 75.7 °F 51.6 °F 23.61 in NW 5.8 mph -999.0 mph 43 % 0 in
10:59 76.8 °F 50.7 °F 23.61 in NNW 5.8 mph -999.0 mph 40 % 0 in
11:14 77.7 °F 50.1 °F 23.62 in WNW 4.2 mph -999.0 mph 38 % 0 in
11:30 78.8 °F 51.1 °F 23.62 in NW 4.7 mph -999.0 mph 38 % 0 in
11:45 80.2 °F 50.8 °F 23.61 in North 4.2 mph -999.0 mph 36 % 0 in
12:00 81.0 °F 51.5 °F 23.61 in NNW 3.2 mph -999.0 mph 36 % 0 in
12:16 82.8 °F 52.4 °F 23.61 in NNW 5.8 mph -999.0 mph 35 % 0 in
12:31 84.0 °F 51.8 °F 23.61 in NNW 5.3 mph -999.0 mph 33 % 0 in
12:46 83.5 °F 52.2 °F 23.61 in NW 5.3 mph -999.0 mph 34 % 0 in
13:01 84.0 °F 51.8 °F 23.61 in NNW 4.7 mph -999.0 mph 33 % 0 in
13:17 84.4 °F 52.2 °F 23.61 in NW 5.3 mph -999.0 mph 33 % 0 in
13:32 84.6 °F 49.8 °F 23.61 in NNW 4.2 mph -999.0 mph 30 % 0 in
13:48 85.5 °F 50.5 °F 23.61 in West 5.8 mph -999.0 mph 30 % 0 in
14:03 86.5 °F 51.4 °F 23.61 in NW 4.2 mph -999.0 mph 30 % 0 in
14:18 86.0 °F 51.0 °F 23.61 in NNW 4.7 mph -999.0 mph 30 % 0 in
14:33 86.0 °F 51.9 °F 23.60 in NW 4.2 mph -999.0 mph 31 % 0 in
14:49 85.3 °F 50.4 °F 23.60 in North 3.7 mph -999.0 mph 30 % 0 in
15:04 86.7 °F 51.6 °F 23.59 in NW 4.7 mph -999.0 mph 30 % 0 in
15:19 85.8 °F 50.8 °F 23.59 in NW 5.3 mph -999.0 mph 30 % 0 in
15:34 84.7 °F 51.6 °F 23.59 in WNW 4.2 mph -999.0 mph 32 % 0 in
15:50 84.4 °F 53.0 °F 23.59 in NW 3.7 mph -999.0 mph 34 % 0 in
16:05 84.4 °F 52.2 °F 23.58 in WNW 9.4 mph -999.0 mph 33 % 0 in
16:20 83.1 °F 50.2 °F 23.58 in WSW 3.2 mph -999.0 mph 32 % 0 in
16:35 83.8 °F 51.6 °F 23.58 in NW 4.7 mph -999.0 mph 33 % 0 in
16:51 85.3 °F 50.4 °F 23.57 in NNW 4.7 mph -999.0 mph 30 % 0 in
17:07 85.8 °F 50.8 °F 23.57 in NW 4.7 mph -999.0 mph 30 % 0 in
17:22 84.7 °F 51.6 °F 23.57 in WNW 5.8 mph -999.0 mph 32 % 0 in
17:37 84.9 °F 52.6 °F 23.57 in NW 3.7 mph -999.0 mph 33 % 0 in
17:53 82.2 °F 50.2 °F 23.57 in SW 2.2 mph -999.0 mph 33 % 0 in
18:08 83.1 °F 51.0 °F 23.57 in SSW 2.2 mph -999.0 mph 33 % 0 in
18:23 82.2 °F 51.8 °F 23.57 in NNW 4.7 mph -999.0 mph 35 % 0 in
18:39 80.2 °F 50.8 °F 23.57 in North 3.7 mph -999.0 mph 36 % 0 in
18:54 80.2 °F 52.3 °F 23.57 in West 3.7 mph -999.0 mph 38 % 0 in
19:10 79.2 °F 52.8 °F 23.58 in WNW 2.2 mph -999.0 mph 40 % 0 in
19:25 75.7 °F 52.2 °F 23.58 in Calm   -999.0 mph 44 % 0 in
19:40 73.6 °F 51.5 °F 23.58 in Calm   -999.0 mph 46 % 0 in
19:55 72.1 °F 51.3 °F 23.58 in WNW 1.7 mph -999.0 mph 48 % 0 in
20:10 71.8 °F 49.9 °F 23.59 in Calm   -999.0 mph 46 % 0 in
20:26 69.8 °F 48.7 °F 23.59 in Calm   -999.0 mph 47 % 0 in
20:41 68.9 °F 47.3 °F 23.59 in Calm   -999.0 mph 46 % 0 in
20:56 68.2 °F 46.6 °F 23.59 in Calm   -999.0 mph 46 % 0 in
21:11 67.5 °F 46.6 °F 23.60 in Calm   -999.0 mph 47 % 0 in
21:26 66.9 °F 46.0 °F 23.60 in Calm   -999.0 mph 47 % 0 in
21:42 65.8 °F 45.6 °F 23.60 in Calm   -999.0 mph 48 % 0 in
21:57 64.9 °F 45.3 °F 23.60 in Calm   -999.0 mph 49 % 0 in
22:13 64.2 °F 45.2 °F 23.60 in Calm   -999.0 mph 50 % 0 in
22:28 63.7 °F 45.7 °F 23.60 in Calm   -999.0 mph 52 % 0 in
22:43 63.1 °F 46.2 °F 23.60 in Calm   -999.0 mph 54 % 0 in
22:58 62.8 °F 46.4 °F 23.60 in Calm   -999.0 mph 55 % 0 in
23:14 62.2 °F 45.8 °F 23.60 in Calm   -999.0 mph 55 % 0 in
23:29 61.7 °F 45.8 °F 23.60 in Calm   -999.0 mph 56 % 0 in
23:44 61.3 °F 45.5 °F 23.60 in Calm   -999.0 mph 56 % 0 in
23:59 61.2 °F 45.8 °F 23.60 in Calm   -999.0 mph 57 % 0 in
Big Bear CA Weather
Compliments of Weather Underground - 1.25 mb